Kilbourn, Iowa
Current Conditions -  °F | °C
As of 8:15 AM on Monday 26 Jan 2015 (Local Time) from KFFL Reporting Station
Overcast Overcast  
Wind Chill: 18°   Ceiling: 2100
Heat Index: 28°   Visibility: 10mi
Dew Point: 27°   Wind: 12mph
Humidity: 93%   Direction: 180°S
Pressure: 29.91"   Gusts: NA
Location:  40.8549°N, 91.9505°W
Report Text: KFFL 261415Z AUTO 18010KT 10SM OVC021 M02/M03 A2991 RMK AO2
Loading
Personal Weather Stations






























Interactive Weather Map New forecast layout! Learn more

10-Day Weather Forecast

Advertisements
Track Severe Weather on mobile